createdAt,value
2022-08-23T00:00:42.961Z,34.40
2022-08-23T00:03:11.871Z,24.10
2022-08-23T00:05:41.068Z,28.10
2022-08-23T00:08:09.972Z,23.80
2022-08-23T00:10:48.946Z,27.30
2022-08-23T00:13:17.549Z,22.10
2022-08-23T00:15:49.906Z,27.60
2022-08-23T00:18:22.295Z,34.30
2022-08-23T00:20:53.397Z,25.00
2022-08-23T00:23:24.843Z,25.70
2022-08-23T00:25:53.555Z,25.60
2022-08-23T00:28:22.174Z,27.40
2022-08-23T00:30:53.941Z,35.60
2022-08-23T00:33:22.421Z,18.30
2022-08-23T00:35:51.166Z,19.10
2022-08-23T00:38:34.743Z,23.70
2022-08-23T00:41:07.303Z,24.70
2022-08-23T00:43:58.127Z,25.80
2022-08-23T00:47:14.778Z,34.80
2022-08-23T00:49:50.287Z,19.90
2022-08-23T00:52:29.015Z,26.10
2022-08-23T00:54:58.292Z,27.80
2022-08-23T00:57:28.743Z,34.40
2022-08-23T00:59:57.349Z,32.70
2022-08-23T01:02:28.209Z,34.40
2022-08-23T01:05:00.703Z,29.20
2022-08-23T01:07:42.628Z,25.70
2022-08-23T01:10:20.091Z,29.10
2022-08-23T01:12:58.071Z,31.60
2022-08-23T01:15:32.711Z,34.20
2022-08-23T01:18:05.071Z,24.90
2022-08-23T01:20:39.415Z,26.60
2022-08-23T01:23:18.918Z,28.50
2022-08-23T01:25:47.941Z,29.70
2022-08-23T01:28:17.665Z,25.20
2022-08-23T01:30:48.336Z,28.40
2022-08-23T01:33:19.052Z,33.60
2022-08-23T01:35:52.862Z,31.10
2022-08-23T01:38:22.136Z,37.10
2022-08-23T01:40:51.652Z,27.10
2022-08-23T01:43:22.951Z,31.00
2022-08-23T01:45:54.503Z,29.10
2022-08-23T01:48:25.354Z,30.10
2022-08-23T01:50:53.863Z,31.10
2022-08-23T01:53:22.803Z,29.20
2022-08-23T01:55:52.028Z,24.60
2022-08-23T01:58:24.076Z,29.90
2022-08-23T02:01:04.311Z,28.00
2022-08-23T02:03:36.628Z,29.10
2022-08-23T02:06:07.499Z,28.20
2022-08-23T02:08:54.485Z,25.60
2022-08-23T02:11:37.387Z,31.20
2022-08-23T02:14:09.148Z,36.10
2022-08-23T02:17:03.870Z,27.10
2022-08-23T02:19:37.960Z,33.50
2022-08-23T02:22:10.838Z,34.90
2022-08-23T02:24:42.416Z,20.60
2022-08-23T02:27:14.260Z,32.50
2022-08-23T02:29:47.043Z,30.20
2022-08-23T02:32:18.067Z,30.10
2022-08-23T02:34:51.011Z,29.20
2022-08-23T02:37:29.174Z,34.60
2022-08-23T02:39:57.730Z,23.60
2022-08-23T02:42:26.392Z,22.80
2022-08-23T02:44:55.776Z,24.50
2022-08-23T02:47:26.851Z,24.30
2022-08-23T02:50:08.947Z,23.90
2022-08-23T02:52:46.967Z,28.20
2022-08-23T02:55:18.802Z,25.00
2022-08-23T02:57:47.804Z,28.00
2022-08-23T03:00:18.384Z,23.20
2022-08-23T03:02:47.147Z,21.50
2022-08-23T03:05:16.611Z,29.30
2022-08-23T03:07:45.480Z,26.10
2022-08-23T03:10:15.814Z,24.80
2022-08-23T03:12:48.724Z,23.80
2022-08-23T03:15:20.338Z,29.50
2022-08-23T03:17:49.981Z,20.60
2022-08-23T03:20:19.754Z,23.80
2022-08-23T03:22:54.611Z,21.50
2022-08-23T03:25:28.712Z,24.00
2022-08-23T03:28:20.802Z,25.70
2022-08-23T03:30:50.319Z,31.30
2022-08-23T03:33:39.703Z,24.90
2022-08-23T03:36:11.767Z,25.40
2022-08-23T03:38:41.826Z,17.40
2022-08-23T03:41:17.142Z,24.00
2022-08-23T03:43:46.205Z,34.20
2022-08-23T03:46:23.311Z,24.00
2022-08-23T03:48:58.062Z,21.10
2022-08-23T03:51:28.639Z,23.40
2022-08-23T03:53:58.452Z,16.90
2022-08-23T03:56:33.113Z,28.60
2022-08-23T03:59:06.751Z,22.90
2022-08-23T04:01:35.911Z,21.10
2022-08-23T04:04:05.890Z,29.40
2022-08-23T04:06:35.489Z,19.70
2022-08-23T04:09:04.371Z,20.10
2022-08-23T04:11:33.319Z,19.10
2022-08-23T04:14:07.640Z,19.10
2022-08-23T04:16:38.295Z,22.40
2022-08-23T04:19:08.849Z,17.50
2022-08-23T04:21:39.506Z,23.30
2022-08-23T04:24:08.462Z,14.80
2022-08-23T04:26:37.185Z,20.80
2022-08-23T04:29:06.692Z,24.60
2022-08-23T04:31:37.477Z,20.50
2022-08-23T04:34:08.795Z,22.30
2022-08-23T04:36:40.316Z,16.50
2022-08-23T04:39:13.469Z,24.50
2022-08-23T04:42:01.022Z,17.90
2022-08-23T04:44:30.263Z,39.90
2022-08-23T04:47:12.846Z,19.50
2022-08-23T04:49:41.942Z,18.00
2022-08-23T04:52:10.749Z,21.00
2022-08-23T04:54:41.482Z,26.60
2022-08-23T04:57:50.560Z,21.20
2022-08-23T05:00:27.905Z,19.80
2022-08-23T05:02:57.423Z,25.30
2022-08-23T05:05:36.238Z,18.20
2022-08-23T05:08:05.290Z,20.90
2022-08-23T05:10:33.906Z,19.60
2022-08-23T05:13:03.717Z,20.70
2022-08-23T05:15:32.250Z,17.80
2022-08-23T05:18:06.147Z,25.10
2022-08-23T05:20:37.954Z,19.60
2022-08-23T05:23:06.774Z,27.10
2022-08-23T05:25:51.522Z,16.10
2022-08-23T05:28:44.374Z,16.20
2022-08-23T05:31:18.689Z,22.00
2022-08-23T05:34:08.005Z,13.50
2022-08-23T05:36:59.864Z,17.00
2022-08-23T05:39:37.455Z,15.90
2022-08-23T05:42:13.087Z,17.90
2022-08-23T05:44:43.364Z,18.20
2022-08-23T05:47:15.135Z,15.60
2022-08-23T05:50:09.244Z,17.70
2022-08-23T05:52:38.706Z,19.60
2022-08-23T05:55:08.826Z,20.50
2022-08-23T05:58:06.955Z,13.50
2022-08-23T06:00:37.368Z,20.40
2022-08-23T06:03:09.462Z,22.10
2022-08-23T06:05:41.680Z,16.70
2022-08-23T06:08:10.469Z,15.90
2022-08-23T06:10:42.199Z,23.90
2022-08-23T06:13:20.974Z,18.20
2022-08-23T06:15:49.814Z,18.50
2022-08-23T06:18:20.405Z,18.50
2022-08-23T06:20:57.962Z,22.50
2022-08-23T06:23:41.508Z,18.80
2022-08-23T06:26:14.690Z,20.50
2022-08-23T06:28:50.858Z,15.70
2022-08-23T06:31:37.692Z,17.80
2022-08-23T06:34:12.179Z,18.70
2022-08-23T06:37:07.149Z,27.00
2022-08-23T06:39:57.404Z,22.70
2022-08-23T06:42:54.733Z,20.70
2022-08-23T06:45:35.288Z,15.00
2022-08-23T06:48:07.593Z,22.90
2022-08-23T06:50:36.102Z,21.80
2022-08-23T06:53:44.395Z,18.70
2022-08-23T06:56:34.994Z,20.20
2022-08-23T06:59:08.285Z,21.10
2022-08-23T07:02:05.281Z,16.10
2022-08-23T07:04:55.212Z,23.80
2022-08-23T07:07:44.477Z,22.40
2022-08-23T07:10:16.264Z,19.20
2022-08-23T07:12:45.410Z,24.50
2022-08-23T07:15:15.003Z,22.20
2022-08-23T07:17:46.317Z,15.10
2022-08-23T07:20:15.302Z,17.40
2022-08-23T07:22:45.626Z,18.50
2022-08-23T07:25:15.183Z,21.00
2022-08-23T07:27:48.264Z,24.50
2022-08-23T07:30:18.138Z,19.70
2022-08-23T07:32:47.482Z,20.90
2022-08-23T07:35:29.667Z,27.00
2022-08-23T07:38:05.677Z,23.40
2022-08-23T07:40:43.762Z,29.60
2022-08-23T07:43:23.075Z,28.20
2022-08-23T07:45:55.954Z,20.00
2022-08-23T07:48:50.364Z,20.80
2022-08-23T07:51:17.926Z,21.30
2022-08-23T07:53:46.691Z,28.80
2022-08-23T07:56:19.561Z,26.80
2022-08-23T07:59:14.602Z,26.10
2022-08-23T08:02:01.731Z,22.70
2022-08-23T08:04:30.782Z,29.10
2022-08-23T08:07:18.127Z,20.10
2022-08-23T08:09:49.555Z,18.40
2022-08-23T08:12:18.272Z,23.10
2022-08-23T08:14:48.395Z,18.80
2022-08-23T08:17:18.136Z,20.70
2022-08-23T08:20:19.583Z,26.80
2022-08-23T08:22:56.433Z,21.80
2022-08-23T08:25:30.476Z,21.20
2022-08-23T08:27:59.902Z,18.80
2022-08-23T08:30:32.266Z,25.30
2022-08-23T08:33:01.250Z,26.10
2022-08-23T08:35:31.389Z,22.50
2022-08-23T08:38:01.887Z,20.30
2022-08-23T08:40:36.109Z,17.80
2022-08-23T08:43:19.926Z,23.40
2022-08-23T08:45:59.819Z,26.60
2022-08-23T08:48:30.191Z,21.00
2022-08-23T08:51:02.943Z,21.50
2022-08-23T08:53:38.954Z,27.30
2022-08-23T08:56:21.173Z,23.90
2022-08-23T08:58:58.941Z,25.20
2022-08-23T09:01:31.938Z,31.90
2022-08-23T09:04:02.198Z,23.10
2022-08-23T09:06:41.883Z,32.00
2022-08-23T09:09:24.732Z,20.30
2022-08-23T09:12:13.021Z,31.20
2022-08-23T09:14:58.116Z,25.20
2022-08-23T09:17:38.139Z,31.60
2022-08-23T09:20:08.628Z,32.50
2022-08-23T09:22:41.390Z,20.90
2022-08-23T09:25:17.362Z,22.20
2022-08-23T09:27:56.760Z,35.00
2022-08-23T09:30:47.305Z,25.40
2022-08-23T09:33:20.477Z,26.20
2022-08-23T09:36:05.898Z,28.90
2022-08-23T09:38:35.306Z,28.60
2022-08-23T09:41:18.710Z,24.90
2022-08-23T09:43:48.340Z,52.30
2022-08-23T09:46:27.815Z,45.30
2022-08-23T09:48:58.332Z,42.80
2022-08-23T09:51:35.195Z,22.70
2022-08-23T09:56:38.869Z,26.30
2022-08-23T09:59:27.734Z,26.30
2022-08-23T10:02:02.551Z,41.20
2022-08-23T10:04:44.094Z,33.90
2022-08-23T10:07:28.527Z,28.90
2022-08-23T10:10:15.224Z,27.20
2022-08-23T10:12:44.823Z,39.90
2022-08-23T10:15:15.450Z,26.00
2022-08-23T10:17:54.563Z,30.50
2022-08-23T10:20:35.506Z,37.60
2022-08-23T10:23:22.318Z,27.90
2022-08-23T10:25:57.403Z,27.30
2022-08-23T10:28:57.421Z,35.00
2022-08-23T10:31:34.468Z,29.80
2022-08-23T10:34:24.553Z,24.70
2022-08-23T10:37:08.391Z,31.10
2022-08-23T10:39:45.629Z,26.00
2022-08-23T10:42:33.942Z,26.00
2022-08-23T10:45:15.379Z,32.30
2022-08-23T10:48:03.991Z,28.10
2022-08-23T10:50:44.295Z,27.80
2022-08-23T10:53:33.825Z,81.40
2022-08-23T10:56:07.327Z,36.00
2022-08-23T10:58:45.301Z,40.80
2022-08-23T11:01:20.927Z,39.20
2022-08-23T11:04:00.007Z,28.70
2022-08-23T11:06:52.692Z,32.70
2022-08-23T11:09:50.215Z,89.90
2022-08-23T11:12:29.656Z,26.90
2022-08-23T11:15:12.468Z,29.50
2022-08-23T11:18:03.773Z,23.50
2022-08-23T11:21:02.555Z,36.70
2022-08-23T11:23:44.262Z,25.20
2022-08-23T11:27:06.596Z,24.60
2022-08-23T11:29:43.556Z,25.90
2022-08-23T11:32:44.870Z,36.80
2022-08-23T11:35:43.088Z,39.40
2022-08-23T11:38:15.037Z,32.30
2022-08-23T11:43:37.638Z,33.90
2022-08-23T11:46:26.449Z,40.70
2022-08-23T11:49:55.324Z,46.40
2022-08-23T11:52:46.644Z,47.10
2022-08-23T11:55:31.674Z,50.60
2022-08-23T11:58:18.409Z,41.70
2022-08-23T12:00:58.874Z,30.40
2022-08-23T12:03:59.341Z,45.20
2022-08-23T12:06:40.590Z,39.80
2022-08-23T12:09:36.070Z,33.50
2022-08-23T12:12:25.710Z,37.60
2022-08-23T12:15:18.982Z,36.20
2022-08-23T12:18:14.797Z,59.20
2022-08-23T12:21:00.797Z,26.90
2022-08-23T12:23:30.835Z,37.00
2022-08-23T12:26:07.613Z,37.40
2022-08-23T12:28:42.995Z,43.00
2022-08-23T12:31:20.666Z,42.90
2022-08-23T12:34:38.360Z,38.80
2022-08-23T12:37:20.990Z,29.90
2022-08-23T12:39:55.271Z,37.50
2022-08-23T12:42:29.083Z,39.00
2022-08-23T12:48:48.305Z,32.80
2022-08-23T12:51:17.467Z,34.80
2022-08-23T12:53:46.138Z,35.60
2022-08-23T12:56:19.498Z,46.10
2022-08-23T12:58:53.611Z,45.60
2022-08-23T13:01:26.394Z,46.40
2022-08-23T13:04:07.079Z,54.10
2022-08-23T13:07:20.089Z,40.30
2022-08-23T13:10:21.553Z,35.70
2022-08-23T13:13:00.773Z,31.70
2022-08-23T13:15:50.395Z,43.20
2022-08-23T13:18:49.290Z,39.40
2022-08-23T13:21:39.634Z,44.40
2022-08-23T13:24:38.645Z,51.70
2022-08-23T13:28:09.726Z,40.90
2022-08-23T13:31:03.943Z,40.30
2022-08-23T13:33:34.170Z,36.90
2022-08-23T13:36:22.908Z,44.70
2022-08-23T13:38:55.560Z,45.80
2022-08-23T13:41:32.690Z,58.60
2022-08-23T13:44:10.243Z,43.90
2022-08-23T13:46:46.905Z,44.20
2022-08-23T13:49:19.676Z,43.10
2022-08-23T13:52:38.027Z,55.80
2022-08-23T13:54:54.118Z,44.10
2022-08-23T13:57:23.085Z,68.90
2022-08-23T13:59:54.871Z,38.60
2022-08-23T14:02:37.607Z,40.00
2022-08-23T14:05:08.186Z,65.10
2022-08-23T14:07:37.926Z,56.20
2022-08-23T14:10:10.012Z,56.20
2022-08-23T14:15:13.592Z,71.70
2022-08-23T14:17:46.342Z,52.90
2022-08-23T14:20:33.342Z,48.70
2022-08-23T14:23:11.848Z,59.90
2022-08-23T14:25:43.735Z,65.40
2022-08-23T14:28:12.685Z,64.40
2022-08-23T14:30:41.628Z,55.60
2022-08-23T14:33:10.586Z,45.80
2022-08-23T14:35:39.425Z,49.30
2022-08-23T14:38:08.289Z,72.50
2022-08-23T14:40:37.066Z,48.50
2022-08-23T14:43:06.174Z,49.20
2022-08-23T14:45:34.720Z,56.00
2022-08-23T14:48:04.156Z,54.90
2022-08-23T14:50:33.632Z,53.30
2022-08-23T14:53:03.865Z,44.30
2022-08-23T14:55:32.764Z,57.80
2022-08-23T14:58:02.408Z,41.50
2022-08-23T15:00:31.605Z,53.60
2022-08-23T15:03:04.174Z,57.00
2022-08-23T15:05:35.341Z,54.00
2022-08-23T15:08:04.010Z,52.70
2022-08-23T15:13:29.834Z,52.00
2022-08-23T15:16:03.429Z,56.50
2022-08-23T15:18:33.605Z,58.00
2022-08-23T15:21:03.424Z,58.60
2022-08-23T15:23:32.132Z,66.10
2022-08-23T15:26:00.535Z,37.30
2022-08-23T15:28:30.593Z,36.20
2022-08-23T15:31:00.019Z,34.70
2022-08-23T15:33:30.975Z,37.50
2022-08-23T15:36:01.683Z,27.00
2022-08-23T15:38:31.218Z,42.20
2022-08-23T15:40:59.829Z,35.60
2022-08-23T15:43:33.921Z,39.40
2022-08-23T15:46:09.437Z,35.50
2022-08-23T15:48:43.630Z,30.50
2022-08-23T15:51:12.445Z,24.00
2022-08-23T15:53:40.883Z,18.30
2022-08-23T15:56:13.909Z,29.70
2022-08-23T15:58:42.388Z,27.60
2022-08-23T16:01:11.766Z,20.30
2022-08-23T16:03:42.777Z,25.70
2022-08-23T16:06:13.359Z,28.20
2022-08-23T16:08:45.616Z,16.30
2022-08-23T16:11:14.111Z,25.70
2022-08-23T16:13:44.916Z,14.60
2022-08-23T16:16:18.937Z,15.20
2022-08-23T16:18:48.079Z,19.00
2022-08-23T16:21:17.417Z,21.60
2022-08-23T16:23:47.549Z,20.00
2022-08-23T16:26:21.569Z,18.10
2022-08-23T16:28:52.431Z,18.30
2022-08-23T16:31:22.009Z,14.00
2022-08-23T16:34:09.760Z,20.50
2022-08-23T16:36:40.618Z,14.40
2022-08-23T16:39:10.186Z,20.00
2022-08-23T16:41:38.618Z,18.40
2022-08-23T16:44:07.675Z,25.50
2022-08-23T16:46:39.136Z,17.00
2022-08-23T16:49:07.735Z,17.10
2022-08-23T16:51:36.155Z,13.90
2022-08-23T16:54:05.676Z,11.60
2022-08-23T16:56:35.795Z,17.50
2022-08-23T16:59:07.088Z,20.20
2022-08-23T17:01:46.456Z,30.00
2022-08-23T17:04:15.516Z,16.60
2022-08-23T17:06:45.638Z,24.30
2022-08-23T17:09:14.519Z,25.30
2022-08-23T17:11:44.330Z,22.10
2022-08-23T17:14:13.028Z,20.10
2022-08-23T17:16:43.918Z,18.60
2022-08-23T17:19:13.631Z,23.20
2022-08-23T17:21:43.636Z,23.20
2022-08-23T17:24:16.583Z,24.40
2022-08-23T17:26:46.464Z,26.50
2022-08-23T17:29:14.971Z,18.10
2022-08-23T17:31:43.986Z,21.20
2022-08-23T17:34:12.358Z,16.30
2022-08-23T17:36:47.703Z,21.20
2022-08-23T17:39:19.241Z,10.30
2022-08-23T17:41:48.154Z,23.90
2022-08-23T17:44:17.148Z,16.30
2022-08-23T17:46:47.035Z,16.00
2022-08-23T17:49:17.314Z,13.70
2022-08-23T17:51:46.233Z,15.80
2022-08-23T17:54:16.119Z,13.40
2022-08-23T17:56:50.421Z,13.90
2022-08-23T17:59:20.104Z,11.40
2022-08-23T18:01:48.561Z,13.90
2022-08-23T18:04:16.985Z,19.50
2022-08-23T18:06:48.854Z,20.70
2022-08-23T18:09:17.496Z,16.20
2022-08-23T18:11:47.421Z,14.00
2022-08-23T18:14:15.926Z,15.40
2022-08-23T18:16:45.577Z,11.20
2022-08-23T18:19:14.579Z,14.10
2022-08-23T18:21:46.512Z,17.20
2022-08-23T18:24:15.659Z,21.30
2022-08-23T18:27:03.364Z,15.90
2022-08-23T18:29:38.571Z,18.30
2022-08-23T18:32:08.192Z,11.30
2022-08-23T18:34:39.535Z,12.10
2022-08-23T18:37:09.069Z,13.10
2022-08-23T18:39:37.521Z,13.00
2022-08-23T18:42:09.037Z,11.80
2022-08-23T18:44:38.406Z,15.40
2022-08-23T18:47:07.393Z,14.10
2022-08-23T18:49:36.736Z,12.50
2022-08-23T18:52:07.267Z,16.20
2022-08-23T18:54:38.263Z,9.20
2022-08-23T18:57:07.442Z,9.60
2022-08-23T18:59:44.499Z,12.60
2022-08-23T19:02:13.570Z,17.70
2022-08-23T19:04:45.463Z,19.60
2022-08-23T19:07:15.005Z,14.10
2022-08-23T19:09:43.924Z,14.30
2022-08-23T19:12:13.875Z,8.10
2022-08-23T19:14:42.588Z,15.20
2022-08-23T19:17:12.358Z,13.60
2022-08-23T19:19:40.835Z,15.20
2022-08-23T19:22:09.288Z,11.60
2022-08-23T19:24:37.761Z,11.80
2022-08-23T19:27:06.315Z,10.40
2022-08-23T19:29:36.114Z,12.60
2022-08-23T19:32:08.648Z,9.60
2022-08-23T19:34:37.441Z,11.10
2022-08-23T19:37:10.769Z,8.50
2022-08-23T19:39:49.231Z,20.20
2022-08-23T19:42:19.975Z,14.20
2022-08-23T19:44:48.893Z,18.80
2022-08-23T19:47:20.346Z,11.50
2022-08-23T19:49:50.869Z,11.60
2022-08-23T19:52:19.634Z,18.20
2022-08-23T19:54:48.496Z,10.50
2022-08-23T19:57:16.968Z,21.60
2022-08-23T19:59:45.372Z,11.80
2022-08-23T20:02:13.880Z,12.40
2022-08-23T20:04:42.399Z,13.50
2022-08-23T20:07:11.415Z,13.40
2022-08-23T20:09:39.815Z,13.00
2022-08-23T20:12:10.716Z,10.10
2022-08-23T20:14:39.586Z,11.80
2022-08-23T20:17:08.147Z,8.10
2022-08-23T20:19:37.017Z,10.20
2022-08-23T20:22:24.183Z,8.70
2022-08-23T20:24:53.343Z,10.20
2022-08-23T20:27:25.472Z,11.60
2022-08-23T20:30:00.729Z,7.60
2022-08-23T20:32:30.644Z,14.70
2022-08-23T20:34:59.940Z,15.00
2022-08-23T20:37:30.491Z,13.90
2022-08-23T20:39:59.846Z,8.80
2022-08-23T20:42:28.401Z,15.20
2022-08-23T20:44:57.145Z,11.70
2022-08-23T20:47:25.737Z,11.00
2022-08-23T20:49:54.426Z,16.30
2022-08-23T20:52:22.782Z,12.80
2022-08-23T20:54:52.939Z,12.20
2022-08-23T20:57:22.066Z,8.80
2022-08-23T20:59:50.638Z,10.30
2022-08-23T21:02:19.228Z,10.80
2022-08-23T21:04:49.155Z,17.80
2022-08-23T21:07:17.751Z,10.00
2022-08-23T21:09:50.766Z,14.60
2022-08-23T21:12:19.422Z,11.40
2022-08-23T21:14:47.818Z,8.40
2022-08-23T21:17:16.342Z,9.80
2022-08-23T21:19:44.706Z,8.00
2022-08-23T21:22:13.242Z,7.00
2022-08-23T21:24:41.657Z,12.40
2022-08-23T21:27:10.122Z,12.20
2022-08-23T21:29:39.085Z,12.10
2022-08-23T21:32:07.732Z,16.30
2022-08-23T21:34:36.300Z,10.20
2022-08-23T21:37:04.925Z,20.30
2022-08-23T21:39:33.110Z,13.90
2022-08-23T21:42:02.042Z,10.00
2022-08-23T21:44:43.244Z,17.60
2022-08-23T21:47:11.980Z,11.30
2022-08-23T21:49:40.436Z,9.20
2022-08-23T21:52:08.839Z,12.10
2022-08-23T21:54:41.432Z,12.40
2022-08-23T21:57:11.908Z,11.90
2022-08-23T21:59:40.882Z,12.60
2022-08-23T22:02:09.293Z,8.60
2022-08-23T22:04:38.851Z,9.70
2022-08-23T22:07:07.226Z,11.60
2022-08-23T22:09:35.578Z,9.90
2022-08-23T22:12:05.796Z,11.30
2022-08-23T22:14:35.273Z,15.00
2022-08-23T22:17:05.178Z,12.70
2022-08-23T22:19:33.738Z,7.90
2022-08-23T22:22:02.966Z,10.00
2022-08-23T22:24:31.389Z,10.70
2022-08-23T22:26:59.992Z,13.10
2022-08-23T22:29:28.735Z,11.90
2022-08-23T22:31:57.085Z,12.60
2022-08-23T22:34:25.469Z,16.10
2022-08-23T22:36:56.090Z,12.30
2022-08-23T22:39:24.891Z,11.20
2022-08-23T22:41:54.461Z,13.10
2022-08-23T22:44:22.873Z,11.60
2022-08-23T22:46:51.239Z,10.60
2022-08-23T22:49:19.633Z,9.70
2022-08-23T22:51:49.173Z,11.30
2022-08-23T22:54:24.457Z,10.40
2022-08-23T22:56:53.723Z,22.60
2022-08-23T22:59:32.145Z,10.50
2022-08-23T23:02:03.630Z,17.10
2022-08-23T23:04:33.029Z,15.30
2022-08-23T23:07:01.780Z,13.00
2022-08-23T23:09:30.403Z,9.40
2022-08-23T23:11:58.899Z,13.40
2022-08-23T23:14:27.506Z,13.00
2022-08-23T23:16:56.074Z,8.80
2022-08-23T23:19:43.083Z,10.40
2022-08-23T23:22:14.530Z,10.30
2022-08-23T23:24:42.988Z,13.80
2022-08-23T23:27:11.452Z,14.70
2022-08-23T23:29:41.536Z,18.70
2022-08-23T23:32:10.050Z,14.00
2022-08-23T23:34:38.515Z,13.00
2022-08-23T23:37:06.898Z,12.40
2022-08-23T23:39:35.781Z,17.80
2022-08-23T23:42:04.843Z,12.30
2022-08-23T23:44:33.303Z,10.80
2022-08-23T23:47:02.110Z,9.20
2022-08-23T23:49:33.099Z,11.70
2022-08-23T23:52:04.111Z,13.60
2022-08-23T23:54:34.921Z,13.10
2022-08-23T23:57:03.984Z,12.30
2022-08-23T23:59:32.403Z,15.10
